weather.gov     
National Weather Service

Terminal Aerodrome Forecast
NWS Homepage
This page is being discontinued on March 12, 2014.
The same data is available at this site. Please update your bookmarks.
Thank you, and we apologize for the inconvenience.
Please send an email to SR-SRH.Webmaster@noaa.gov with any concerns.


Current Version
Previous Version:    01  02  03  04  05  06  07  08  09  10  11  12  13  14  15  16  17  18  19  20  21  22  23  24  25  26  27  28  29  30  
   31  32  33  34  35  
[Printable]
159
FTUS44 KHGX 311120
TAFSGR
TAF
KSGR 311120Z 3112/0112 20007KT P6SM SCT250
     FM311500 20006KT P6SM SCT035 SCT150
     FM312200 18008KT P6SM VCTS BKN050CB
      TEMPO 3122/0102 VRB10G25KT 4SM TSRA BKN035CB
     FM010600 VRB03KT P6SM VCTS SCT015 BKN050CB=


159
FTUS44 KHGX 311120
TAFSGR
TAF
KSGR 311120Z 3112/0112 20007KT P6SM SCT250
     FM311500 20006KT P6SM SCT035 SCT150
     FM312200 18008KT P6SM VCTS BKN050CB
      TEMPO 3122/0102 VRB10G25KT 4SM TSRA BKN035CB
     FM010600 VRB03KT P6SM VCTS SCT015 BKN050CB=




U.S. Dept. of Commerce
NOAA National Weather Service
1325 East West Highway
Silver Spring, MD 20910
E-mail: w-nws.webmaster@noaa.gov
Page last modified: May 16, 2007
NATIONAL WEATHER SERVICE: for Safety, for Work, for Fun - FOR LIFE